Time;durP1;ratioP1;P1;durP2;ratioP2;P2;SDS_P1;SDS_P2;PMS_P1;PMS_P2;Temp;Humidity;BMP_temperature;BMP_pressure;BME280_temperature;BME280_humidity;BME280_pressure;Samples;Min_cycle;Max_cycle;Signal;HPM_P1;HPM_P2
2022/10/09 00:00:49;;;;;;;1.15;0.80;;;7.70;99.90;;;;;;5039341;28;20053;-76
2022/10/09 00:03:16;;;;;;;1.70;1.00;;;7.70;99.90;;;;;;5046987;28;20455;-77
2022/10/09 00:05:44;;;;;;;1.40;1.15;;;7.60;99.90;;;;;;5020527;28;20135;-77
2022/10/09 00:08:11;;;;;;;1.30;1.20;;;7.60;99.90;;;;;;5034245;28;20393;-77
2022/10/09 00:10:41;;;;;;;0.77;0.60;;;7.60;99.90;;;;;;5008408;28;20115;-77
2022/10/09 00:13:08;;;;;;;1.35;0.90;;;7.60;99.90;;;;;;5021559;28;20045;-76
2022/10/09 00:15:38;;;;;;;1.13;0.80;;;7.50;99.90;;;;;;5008292;28;20051;-77
2022/10/09 00:18:06;;;;;;;0.93;0.57;;;7.50;99.90;;;;;;5021522;28;20053;-77
2022/10/09 00:20:37;;;;;;;2.03;0.98;;;7.50;99.90;;;;;;5021214;28;20050;-76
2022/10/09 00:23:04;;;;;;;1.52;0.93;;;7.50;99.90;;;;;;5041528;28;20111;-77
2022/10/09 00:25:31;;;;;;;0.93;0.75;;;7.50;99.90;;;;;;5024273;28;20507;-77
2022/10/09 00:27:59;;;;;;;1.45;0.93;;;7.50;99.90;;;;;;5037664;28;20109;-77
2022/10/09 00:30:26;;;;;;;1.10;0.70;;;7.50;99.90;;;;;;5022768;28;20049;-76
2022/10/09 00:32:53;;;;;;;0.95;0.85;;;7.50;99.90;;;;;;5003105;28;20051;-76
2022/10/09 00:35:20;;;;;;;1.02;0.82;;;7.50;99.90;;;;;;5057197;28;20120;-77
2022/10/09 00:37:47;;;;;;;1.45;0.70;;;7.40;99.90;;;;;;5034430;28;20064;-76
2022/10/09 00:40:15;;;;;;;1.95;0.90;;;7.40;99.90;;;;;;5038631;28;20045;-75
2022/10/09 00:42:44;;;;;;;1.15;0.80;;;7.40;99.90;;;;;;5040395;28;20063;-76
2022/10/09 00:45:18;;;;;;;1.33;0.77;;;7.40;99.90;;;;;;5039789;28;20049;-76
2022/10/09 00:47:50;;;;;;;1.05;0.70;;;7.30;99.90;;;;;;5006007;28;20152;-76
2022/10/09 00:50:37;;;;;;;0.68;0.63;;;7.30;99.90;;;;;;5007051;28;20051;-76
2022/10/09 00:53:04;;;;;;;1.20;0.80;;;7.30;99.90;;;;;;5025277;28;20210;-77
2022/10/09 00:55:30;;;;;;;2.22;1.05;;;7.30;99.90;;;;;;5020296;28;20412;-76
2022/10/09 00:57:58;;;;;;;1.58;0.93;;;7.30;99.90;;;;;;5007421;28;20170;-76
2022/10/09 01:00:25;;;;;;;0.88;0.73;;;7.30;99.90;;;;;;5024221;28;20052;-76
2022/10/09 01:02:53;;;;;;;1.42;0.90;;;7.30;99.90;;;;;;5023271;28;20052;-76
2022/10/09 01:05:28;;;;;;;0.77;0.77;;;7.20;99.90;;;;;;5050277;28;20052;-76
2022/10/09 01:08:13;;;;;;;1.30;0.85;;;7.20;99.90;;;;;;5039477;28;20626;-76
2022/10/09 01:10:47;;;;;;;0.98;0.80;;;7.10;99.90;;;;;;5024341;28;20049;-76
2022/10/09 01:13:16;;;;;;;1.02;0.70;;;7.10;99.90;;;;;;5008175;28;20436;-76
2022/10/09 01:15:53;;;;;;;1.15;0.80;;;7.10;99.90;;;;;;5036532;28;20140;-76
2022/10/09 01:18:35;;;;;;;1.33;0.75;;;7.10;99.90;;;;;;5020600;28;20053;-76
2022/10/09 01:21:24;;;;;;;1.30;0.90;;;7.10;99.90;;;;;;5023393;28;20404;-76
2022/10/09 01:24:12;;;;;;;1.75;0.85;;;7.10;99.90;;;;;;5023900;28;20507;-76
2022/10/09 01:26:55;;;;;;;1.15;0.82;;;7.10;99.90;;;;;;5036141;28;20048;-77
2022/10/09 01:29:23;;;;;;;1.15;0.80;;;7.10;99.90;;;;;;5036313;28;20115;-76
2022/10/09 01:31:50;;;;;;;0.95;0.70;;;7.10;99.90;;;;;;5018980;28;20103;-76
2022/10/09 01:34:17;;;;;;;0.80;0.70;;;7.00;99.90;;;;;;5052471;28;20591;-76
2022/10/09 01:36:44;;;;;;;1.50;0.70;;;7.00;99.90;;;;;;5022836;28;20056;-76
2022/10/09 01:39:18;;;;;;;1.05;0.73;;;6.90;99.90;;;;;;5025454;28;20053;-76
2022/10/09 01:41:46;;;;;;;1.42;0.80;;;6.80;99.90;;;;;;5038531;28;20044;-76
2022/10/09 01:44:21;;;;;;;1.23;0.75;;;6.80;99.90;;;;;;5008705;28;20049;-76
2022/10/09 01:46:48;;;;;;;0.65;0.50;;;6.80;99.90;;;;;;5005671;28;20535;-76
2022/10/09 01:49:40;;;;;;;1.23;0.55;;;6.80;99.90;;;;;;5039817;28;20053;-76
2022/10/09 01:52:32;;;;;;;1.35;1.00;;;6.80;99.90;;;;;;5038596;28;20041;-76
2022/10/09 01:55:29;;;;;;;0.95;0.80;;;6.80;99.90;;;;;;5042135;28;20130;-76
2022/10/09 01:58:31;;;;;;;1.30;0.90;;;6.70;99.90;;;;;;5045811;28;20056;-77
2022/10/09 02:01:03;;;;;;;0.60;0.60;;;6.80;99.90;;;;;;5041325;28;20077;-76
2022/10/09 02:03:30;;;;;;;1.33;0.75;;;6.70;99.90;;;;;;5040094;28;20072;-76
2022/10/09 02:05:56;;;;;;;0.70;0.55;;;6.60;99.90;;;;;;5023303;28;20133;-77
2022/10/09 02:08:24;;;;;;;1.27;0.80;;;6.60;99.90;;;;;;5010744;28;20095;-77
2022/10/09 02:10:53;;;;;;;0.75;0.70;;;6.60;99.90;;;;;;5027106;28;20048;-76
2022/10/09 02:13:20;;;;;;;1.00;0.70;;;6.60;99.90;;;;;;5024407;28;20048;-77
2022/10/09 02:16:03;;;;;;;0.85;0.60;;;6.50;99.90;;;;;;5024629;28;20045;-77
2022/10/09 02:18:37;;;;;;;0.60;0.60;;;6.50;99.90;;;;;;5009734;28;20057;-77
2022/10/09 02:21:09;;;;;;;0.63;0.60;;;6.50;99.90;;;;;;5023098;28;20430;-77
2022/10/09 02:23:36;;;;;;;0.77;0.65;;;6.50;99.90;;;;;;5007806;28;20045;-77
2022/10/09 02:26:03;;;;;;;0.50;0.50;;;6.50;99.90;;;;;;5010327;28;20049;-77
2022/10/09 02:28:30;;;;;;;1.63;0.80;;;6.50;99.90;;;;;;5043731;28;20055;-77
2022/10/09 02:31:16;;;;;;;0.90;0.70;;;6.50;99.90;;;;;;5007532;28;20099;-77
2022/10/09 02:33:43;;;;;;;1.27;0.73;;;6.50;99.90;;;;;;5037882;28;20052;-77
2022/10/09 02:36:10;;;;;;;1.65;0.80;;;6.40;99.90;;;;;;5025102;28;20049;-77
2022/10/09 02:38:37;;;;;;;0.60;0.50;;;6.40;99.90;;;;;;5026475;28;20504;-77
2022/10/09 02:41:05;;;;;;;0.50;0.38;;;6.40;99.90;;;;;;5026867;28;20048;-77
2022/10/09 02:43:31;;;;;;;1.08;0.70;;;6.30;99.90;;;;;;5036782;28;20099;-77
2022/10/09 02:45:59;;;;;;;0.55;0.55;;;6.30;99.90;;;;;;5025773;28;20041;-77
2022/10/09 02:48:25;;;;;;;1.02;0.70;;;6.30;99.90;;;;;;5038904;28;20053;-77
2022/10/09 02:50:52;;;;;;;0.82;0.50;;;6.30;99.90;;;;;;5023422;28;20143;-77
2022/10/09 02:53:19;;;;;;;0.73;0.50;;;6.30;99.90;;;;;;5003624;28;20053;-77
2022/10/09 02:55:46;;;;;;;0.60;0.50;;;6.30;99.90;;;;;;5024721;28;20211;-77
2022/10/09 02:58:13;;;;;;;0.75;0.60;;;6.20;99.90;;;;;;5007393;28;20045;-77
2022/10/09 03:00:40;;;;;;;0.50;0.40;;;6.20;99.90;;;;;;5027601;28;20070;-77
2022/10/09 03:03:07;;;;;;;0.50;0.50;;;6.20;99.90;;;;;;4976893;28;1414866;-77
2022/10/09 03:05:34;;;;;;;0.45;0.45;;;6.10;99.90;;;;;;5043140;28;20053;-77
2022/10/09 03:08:01;;;;;;;0.55;0.47;;;6.10;99.90;;;;;;5040664;28;20041;-77
2022/10/09 03:10:29;;;;;;;0.98;0.65;;;6.10;99.90;;;;;;5044026;28;20378;-77
2022/10/09 03:12:56;;;;;;;0.73;0.68;;;6.10;99.90;;;;;;5043600;28;20148;-77
2022/10/09 03:15:23;;;;;;;1.42;0.60;;;6.10;99.90;;;;;;5043732;28;20049;-77
2022/10/09 03:17:49;;;;;;;0.82;0.60;;;6.10;99.90;;;;;;5023619;28;20052;-77
2022/10/09 03:20:17;;;;;;;1.02;0.50;;;6.10;99.90;;;;;;5040114;28;20049;-77
2022/10/09 03:22:43;;;;;;;0.70;0.50;;;6.20;99.90;;;;;;5042536;28;20783;-76
2022/10/09 03:25:10;;;;;;;0.80;0.50;;;6.20;99.90;;;;;;5042590;28;20143;-77
2022/10/09 03:27:37;;;;;;;0.40;0.40;;;6.10;99.90;;;;;;5010484;28;20148;-77
2022/10/09 03:30:05;;;;;;;0.77;0.60;;;6.20;99.90;;;;;;5010938;28;20143;-77
2022/10/09 03:32:32;;;;;;;1.15;0.55;;;6.20;99.90;;;;;;5026422;28;20056;-77
2022/10/09 03:34:59;;;;;;;0.40;0.40;;;6.20;99.90;;;;;;5040317;28;20041;-76
2022/10/09 03:37:26;;;;;;;0.50;0.50;;;6.10;99.90;;;;;;5044486;28;20349;-77
2022/10/09 03:39:54;;;;;;;0.82;0.50;;;6.20;99.90;;;;;;5045043;28;20412;-76
2022/10/09 03:42:21;;;;;;;0.80;0.73;;;6.10;99.90;;;;;;5025746;28;20045;-76
2022/10/09 03:44:47;;;;;;;0.88;0.65;;;6.10;99.90;;;;;;5026369;28;20059;-76
2022/10/09 03:47:14;;;;;;;0.77;0.43;;;6.00;99.90;;;;;;5023051;28;20123;-77
2022/10/09 03:49:41;;;;;;;1.27;0.50;;;6.00;99.90;;;;;;5022340;28;20662;-76
2022/10/09 03:52:08;;;;;;;1.05;0.75;;;6.00;99.90;;;;;;5010411;28;20608;-76
2022/10/09 03:54:35;;;;;;;0.85;0.57;;;5.90;99.90;;;;;;5039956;28;20052;-77
2022/10/09 03:57:02;;;;;;;0.93;0.60;;;5.90;99.90;;;;;;5040319;28;20053;-77
2022/10/09 03:59:28;;;;;;;0.95;0.60;;;5.80;99.90;;;;;;5027466;28;20057;-77
2022/10/09 04:01:56;;;;;;;0.40;0.40;;;5.90;99.90;;;;;;5008124;28;20084;-76
2022/10/09 04:04:23;;;;;;;0.63;0.50;;;5.90;99.90;;;;;;5043403;28;20041;-76
2022/10/09 04:06:50;;;;;;;0.80;0.57;;;5.90;99.90;;;;;;5026475;28;20068;-76
2022/10/09 04:09:16;;;;;;;0.60;0.50;;;5.90;99.90;;;;;;5007941;28;20048;-77
2022/10/09 04:11:43;;;;;;;2.95;0.70;;;5.90;99.90;;;;;;5041797;28;20045;-76
2022/10/09 04:14:10;;;;;;;0.98;0.47;;;5.90;99.90;;;;;;5042397;28;20041;-77
2022/10/09 04:16:37;;;;;;;0.40;0.40;;;5.80;99.90;;;;;;5043920;28;20127;-76
2022/10/09 04:19:04;;;;;;;0.52;0.50;;;5.80;99.90;;;;;;5041797;28;20053;-76
2022/10/09 04:21:32;;;;;;;0.98;0.60;;;5.80;99.90;;;;;;5009154;28;20054;-76
2022/10/09 04:23:59;;;;;;;0.35;0.35;;;5.70;99.90;;;;;;5042276;28;20583;-77
2022/10/09 04:26:26;;;;;;;1.33;0.57;;;5.70;99.90;;;;;;5025338;28;20064;-76
2022/10/09 04:28:53;;;;;;;0.68;0.50;;;5.70;99.90;;;;;;5044026;28;20072;-77
2022/10/09 04:31:20;;;;;;;0.47;0.43;;;5.70;99.90;;;;;;5025207;28;20053;-76
2022/10/09 04:33:47;;;;;;;0.60;0.60;;;5.70;99.90;;;;;;5023025;28;20537;-77
2022/10/09 04:36:14;;;;;;;0.47;0.47;;;5.70;99.90;;;;;;5025692;28;20055;-76
2022/10/09 04:38:41;;;;;;;0.55;0.50;;;5.70;99.90;;;;;;5025119;28;20041;-77
2022/10/09 04:41:09;;;;;;;0.35;0.35;;;5.70;99.90;;;;;;5041863;28;20080;-77
2022/10/09 04:43:35;;;;;;;0.40;0.30;;;5.60;99.90;;;;;;5007056;28;20403;-77
2022/10/09 04:46:06;;;;;;;1.17;0.52;;;5.60;99.90;;;;;;5044034;28;20133;-77
2022/10/09 04:48:38;;;;;;;0.82;0.52;;;5.60;99.90;;;;;;5024467;28;20124;-77
2022/10/09 04:51:05;;;;;;;0.85;0.50;;;5.60;99.90;;;;;;5010040;28;20045;-77
2022/10/09 04:53:32;;;;;;;0.52;0.40;;;5.60;99.90;;;;;;5022640;28;20045;-77
2022/10/09 04:56:02;;;;;;;0.65;0.50;;;5.60;99.90;;;;;;5006656;28;20049;-76
2022/10/09 04:58:30;;;;;;;0.43;0.43;;;5.50;99.90;;;;;;5044593;28;20405;-76
2022/10/09 05:00:57;;;;;;;0.82;0.50;;;5.50;99.90;;;;;;5022036;28;20055;-76
2022/10/09 05:03:24;;;;;;;0.70;0.50;;;5.50;99.90;;;;;;5022273;28;20053;-76
2022/10/09 05:05:51;;;;;;;0.60;0.32;;;5.40;99.90;;;;;;5004603;28;20095;-76
2022/10/09 05:08:17;;;;;;;0.63;0.63;;;5.50;99.90;;;;;;5019425;28;20578;-76
2022/10/09 05:10:45;;;;;;;0.57;0.50;;;5.50;99.90;;;;;;5023009;28;20071;-77
2022/10/09 05:13:12;;;;;;;0.75;0.40;;;5.50;99.90;;;;;;5023914;28;20051;-78
2022/10/09 05:15:39;;;;;;;1.27;0.50;;;5.50;99.90;;;;;;5038075;28;20041;-75
2022/10/09 05:18:05;;;;;;;0.88;0.77;;;5.50;99.90;;;;;;5018557;28;20049;-76
2022/10/09 05:20:32;;;;;;;0.70;0.50;;;5.50;99.90;;;;;;5041379;28;20067;-79
2022/10/09 05:22:59;;;;;;;0.43;0.40;;;5.50;99.90;;;;;;5043731;28;20051;-76
2022/10/09 05:25:26;;;;;;;0.47;0.47;;;5.50;99.90;;;;;;5039668;28;20057;-76
2022/10/09 05:27:52;;;;;;;0.52;0.47;;;5.50;99.90;;;;;;5040544;28;20408;-76
2022/10/09 05:30:20;;;;;;;0.68;0.68;;;5.50;99.90;;;;;;5037891;28;20049;-76
2022/10/09 05:32:46;;;;;;;0.40;0.40;;;5.50;99.90;;;;;;5038872;28;20040;-76
2022/10/09 05:35:14;;;;;;;0.98;0.60;;;5.50;99.90;;;;;;5023634;28;20144;-77
2022/10/09 05:37:43;;;;;;;0.77;0.50;;;5.50;99.90;;;;;;5042484;28;20041;-76
2022/10/09 05:40:10;;;;;;;0.40;0.40;;;5.40;99.90;;;;;;5024938;28;20045;-77
2022/10/09 05:42:38;;;;;;;0.63;0.60;;;5.40;99.90;;;;;;5040881;28;20045;-76
2022/10/09 05:45:07;;;;;;;1.52;0.88;;;5.40;99.90;;;;;;5043095;28;20052;-79
2022/10/09 05:47:33;;;;;;;0.52;0.52;;;5.50;99.90;;;;;;5022386;28;20045;-76
2022/10/09 05:50:00;;;;;;;1.25;0.63;;;5.50;99.90;;;;;;5038205;28;20049;-76
2022/10/09 05:52:27;;;;;;;0.60;0.60;;;5.50;99.90;;;;;;5021848;28;20126;-77
2022/10/09 05:54:55;;;;;;;0.88;0.55;;;5.50;99.90;;;;;;5055367;28;20055;-76
2022/10/09 05:57:22;;;;;;;1.10;0.40;;;5.50;99.90;;;;;;5011406;28;20041;-76
2022/10/09 05:59:49;;;;;;;0.88;0.55;;;5.40;99.90;;;;;;5024734;28;20056;-77
2022/10/09 06:02:16;;;;;;;0.73;0.60;;;5.40;99.90;;;;;;5024812;28;20051;-77
2022/10/09 06:04:43;;;;;;;0.73;0.50;;;5.40;99.90;;;;;;5042016;28;20068;-76
2022/10/09 06:07:10;;;;;;;1.10;0.65;;;5.40;99.90;;;;;;5039394;28;20045;-76
2022/10/09 06:09:36;;;;;;;0.50;0.50;;;5.40;99.90;;;;;;5042590;28;20055;-77
2022/10/09 06:12:04;;;;;;;0.90;0.50;;;5.40;99.90;;;;;;5008717;28;20491;-77
2022/10/09 06:14:30;;;;;;;0.40;0.40;;;5.40;99.90;;;;;;5041115;28;20055;-77
2022/10/09 06:16:58;;;;;;;0.50;0.40;;;5.30;99.90;;;;;;5009759;28;20053;-76
2022/10/09 06:19:26;;;;;;;0.55;0.50;;;5.30;99.90;;;;;;5040698;28;20072;-77
2022/10/09 06:21:54;;;;;;;0.55;0.55;;;5.30;99.90;;;;;;5024748;28;20045;-76
2022/10/09 06:24:22;;;;;;;0.40;0.40;;;5.30;99.90;;;;;;5037510;28;20055;-76
2022/10/09 06:26:54;;;;;;;0.75;0.50;;;5.30;99.90;;;;;;5018801;28;20051;-77
2022/10/09 06:29:20;;;;;;;0.90;0.60;;;5.30;99.90;;;;;;5006962;28;20059;-78
2022/10/09 06:31:47;;;;;;;0.60;0.55;;;5.40;99.90;;;;;;5009118;28;20041;-78
2022/10/09 06:34:14;;;;;;;0.85;0.65;;;5.30;99.90;;;;;;5025726;28;20060;-78
2022/10/09 06:36:41;;;;;;;0.75;0.60;;;5.20;99.90;;;;;;5025422;28;20056;-76
2022/10/09 06:39:09;;;;;;;0.88;0.70;;;5.30;99.90;;;;;;5024239;28;20489;-76
2022/10/09 06:41:35;;;;;;;0.40;0.40;;;5.30;99.90;;;;;;5026403;28;20040;-76
2022/10/09 06:44:04;;;;;;;0.50;0.50;;;5.30;99.90;;;;;;5041336;28;20129;-76
2022/10/09 06:46:33;;;;;;;0.30;0.30;;;5.30;99.90;;;;;;5028127;28;20056;-76
2022/10/09 06:49:00;;;;;;;0.50;0.50;;;5.30;99.90;;;;;;5030959;28;20049;-76
2022/10/09 06:51:27;;;;;;;0.77;0.60;;;5.30;99.90;;;;;;5057812;28;20540;-76
2022/10/09 06:53:56;;;;;;;0.70;0.50;;;5.30;99.90;;;;;;5037871;28;20060;-76
2022/10/09 06:56:24;;;;;;;0.50;0.50;;;5.40;99.90;;;;;;5019376;28;20041;-76
2022/10/09 06:58:51;;;;;;;1.05;0.60;;;5.40;99.90;;;;;;5042092;28;20053;-76
2022/10/09 07:01:23;;;;;;;0.68;0.68;;;5.40;99.90;;;;;;5037226;28;20049;-76
2022/10/09 07:03:54;;;;;;;0.70;0.60;;;5.50;99.90;;;;;;5023943;28;20621;-77
2022/10/09 07:06:23;;;;;;;0.50;0.50;;;5.50;99.90;;;;;;5037405;28;20158;-77
2022/10/09 07:08:52;;;;;;;0.52;0.52;;;5.60;99.90;;;;;;5033417;28;20040;-76
2022/10/09 07:11:30;;;;;;;0.80;0.60;;;5.70;99.90;;;;;;5029796;28;20052;-76
2022/10/09 07:13:58;;;;;;;0.50;0.50;;;5.70;99.90;;;;;;5032679;28;20049;-76
2022/10/09 07:16:27;;;;;;;0.80;0.60;;;5.80;99.90;;;;;;5028036;28;20167;-76
2022/10/09 07:18:54;;;;;;;1.42;0.70;;;5.90;99.90;;;;;;5064046;28;20132;-77
2022/10/09 07:21:22;;;;;;;0.60;0.60;;;6.00;99.90;;;;;;5034356;28;20072;-76
2022/10/09 07:23:49;;;;;;;0.65;0.65;;;6.10;99.90;;;;;;5043797;28;20045;-77
2022/10/09 07:26:24;;;;;;;0.70;0.60;;;6.10;99.90;;;;;;5041509;28;20046;-76
2022/10/09 07:28:51;;;;;;;1.00;0.63;;;6.20;99.90;;;;;;5042524;28;20358;-76
2022/10/09 07:31:18;;;;;;;1.23;0.70;;;6.30;99.90;;;;;;5012159;28;20053;-77
2022/10/09 07:33:55;;;;;;;1.17;0.85;;;6.40;99.90;;;;;;5042862;28;20524;-75
2022/10/09 07:36:23;;;;;;;1.02;0.55;;;6.40;99.90;;;;;;5059712;28;20056;-76
2022/10/09 07:39:13;;;;;;;1.02;0.70;;;6.50;99.90;;;;;;5030699;28;20048;-76
2022/10/09 07:41:40;;;;;;;1.00;0.73;;;6.60;99.90;;;;;;5045599;28;20611;-77
2022/10/09 07:44:06;;;;;;;1.42;0.90;;;6.70;99.90;;;;;;5027606;28;20052;-77
2022/10/09 07:46:34;;;;;;;1.23;0.80;;;6.80;99.90;;;;;;5025240;28;20129;-76
2022/10/09 07:49:01;;;;;;;1.10;0.88;;;6.90;99.90;;;;;;5013798;28;20041;-76
2022/10/09 07:51:28;;;;;;;1.40;1.00;;;7.10;99.90;;;;;;5009211;28;20155;-76
2022/10/09 07:53:56;;;;;;;1.20;0.80;;;7.20;99.90;;;;;;5009222;28;20048;-76
2022/10/09 07:56:28;;;;;;;1.15;0.88;;;7.40;99.90;;;;;;5026630;28;20052;-76
2022/10/09 07:58:56;;;;;;;1.05;0.75;;;7.60;99.90;;;;;;5025620;28;20045;-77
2022/10/09 08:01:23;;;;;;;1.40;0.70;;;7.80;99.90;;;;;;5012306;28;20045;-76
2022/10/09 08:03:50;;;;;;;1.77;1.15;;;8.10;99.90;;;;;;5042493;28;20481;-76
2022/10/09 08:06:17;;;;;;;2.15;0.93;;;8.30;99.90;;;;;;5040769;28;20515;-77
2022/10/09 08:08:44;;;;;;;0.77;0.50;;;8.50;99.90;;;;;;5005513;28;20531;-77
2022/10/09 08:11:12;;;;;;;0.60;0.57;;;8.70;99.90;;;;;;5023203;28;20048;-78
2022/10/09 08:13:39;;;;;;;0.65;0.38;;;8.80;99.90;;;;;;5022031;28;20431;-78
2022/10/09 08:16:06;;;;;;;1.27;0.50;;;9.00;99.90;;;;;;5034440;28;20758;-78
2022/10/09 08:18:33;;;;;;;1.00;0.70;;;9.20;99.90;;;;;;5006668;28;20048;-78
2022/10/09 08:21:20;;;;;;;0.70;0.40;;;9.40;99.90;;;;;;5039877;28;20094;-78
2022/10/09 08:23:52;;;;;;;0.98;0.57;;;9.50;99.90;;;;;;5035099;28;20144;-78
2022/10/09 08:26:20;;;;;;;0.68;0.52;;;9.70;99.90;;;;;;5036735;28;20055;-78
2022/10/09 08:28:51;;;;;;;0.75;0.50;;;9.90;99.90;;;;;;5039630;28;20051;-78
2022/10/09 08:31:19;;;;;;;0.73;0.40;;;10.10;99.90;;;;;;5002740;28;20436;-78
2022/10/09 08:33:46;;;;;;;0.45;0.43;;;10.20;99.90;;;;;;5037690;28;20127;-79
2022/10/09 08:36:14;;;;;;;0.80;0.50;;;10.40;99.90;;;;;;5022749;28;20110;-78
2022/10/09 08:38:41;;;;;;;0.45;0.45;;;10.50;99.90;;;;;;5039856;28;20037;-78
2022/10/09 08:41:31;;;;;;;0.82;0.60;;;10.70;99.90;;;;;;5038408;28;20045;-78
2022/10/09 08:44:12;;;;;;;0.50;0.40;;;11.00;99.90;;;;;;5050128;28;20044;-78
2022/10/09 08:46:58;;;;;;;2.30;0.70;;;11.20;99.90;;;;;;5038280;28;20049;-79
2022/10/09 08:49:47;;;;;;;2.08;0.80;;;11.30;99.90;;;;;;5038746;28;20051;-77
2022/10/09 08:52:35;;;;;;;1.95;1.08;;;11.50;99.90;;;;;;5038884;28;20040;-78
2022/10/09 08:55:19;;;;;;;0.90;0.65;;;11.70;99.90;;;;;;5039022;28;20045;-78
2022/10/09 08:57:47;;;;;;;0.47;0.47;;;11.80;99.90;;;;;;5023814;28;20057;-78
2022/10/09 09:00:15;;;;;;;1.23;0.55;;;12.00;99.90;;;;;;5019938;28;20095;-79
2022/10/09 09:03:03;;;;;;;1.00;0.60;;;12.10;99.90;;;;;;5037617;28;20386;-78
2022/10/09 09:05:42;;;;;;;0.95;0.50;;;12.10;99.90;;;;;;5024696;28;20049;-78
2022/10/09 09:08:15;;;;;;;1.05;0.70;;;12.30;99.90;;;;;;5024883;28;20633;-78
2022/10/09 09:10:45;;;;;;;;;;;12.40;99.90;;;;;;5040272;28;20480;-78
2022/10/09 09:13:43;;;;;;;0.73;0.52;;;12.50;99.90;;;;;;5019965;28;20466;-79
2022/10/09 09:16:25;;;;;;;0.55;0.55;;;12.60;99.90;;;;;;5037745;28;20509;-78
2022/10/09 09:19:01;;;;;;;1.70;0.83;;;12.70;99.90;;;;;;5037438;28;20059;-78
2022/10/09 09:21:52;;;;;;;0.40;0.40;;;12.80;99.90;;;;;;5041132;28;20298;-77
2022/10/09 09:24:41;;;;;;;0.52;0.50;;;12.80;99.90;;;;;;5036687;28;20159;-78
2022/10/09 09:27:23;;;;;;;0.70;0.55;;;12.80;99.90;;;;;;5037329;28;20071;-81
2022/10/09 09:30:11;;;;;;;0.95;0.50;;;13.00;99.90;;;;;;5036128;28;20078;-79
2022/10/09 09:32:46;;;;;;;0.95;0.50;;;13.10;99.90;;;;;;5028584;28;20072;-80
2022/10/09 09:35:32;;;;;;;0.93;0.60;;;13.20;99.90;;;;;;5019882;28;20053;-79
2022/10/09 09:37:59;;;;;;;1.23;0.55;;;13.20;99.90;;;;;;5034471;28;20132;-79
2022/10/09 09:40:29;;;;;;;0.60;0.50;;;13.30;99.90;;;;;;5043771;28;20055;-78
2022/10/09 09:43:04;;;;;;;2.03;0.90;;;13.50;99.90;;;;;;5036749;28;20053;-79
2022/10/09 09:45:31;;;;;;;1.25;0.70;;;13.60;99.90;;;;;;5055930;28;20057;-78
2022/10/09 09:48:06;;;;;;;0.98;0.68;;;13.70;99.90;;;;;;5021267;28;20144;-77
2022/10/09 09:50:36;;;;;;;0.80;0.60;;;13.80;99.90;;;;;;5021867;28;20041;-77
2022/10/09 09:53:41;;;;;;;1.55;1.05;;;13.80;99.90;;;;;;5025249;28;20938;-72
2022/10/09 09:56:08;;;;;;;0.70;0.50;;;13.90;99.90;;;;;;5024521;28;20072;-72
2022/10/09 09:58:47;;;;;;;1.08;0.40;;;14.00;99.90;;;;;;5057136;28;20063;-74
2022/10/09 10:01:44;;;;;;;2.63;1.00;;;14.10;99.90;;;;;;5022784;28;20161;-73
2022/10/09 10:04:17;;;;;;;0.70;0.50;;;14.20;99.90;;;;;;5013046;28;20477;-72
2022/10/09 10:06:44;;;;;;;;;;;14.30;99.90;;;;;;5017502;28;20104;-73
2022/10/09 10:09:16;;;;;;;0.35;0.25;;;14.30;99.90;;;;;;5039404;28;19925;-74
2022/10/09 10:11:57;;;;;;;1.55;0.93;;;14.40;99.90;;;;;;5037061;28;20393;-73
2022/10/09 10:14:24;;;;;;;1.33;0.68;;;14.50;99.90;;;;;;5019701;28;20053;-73
2022/10/09 10:16:52;;;;;;;1.33;0.60;;;14.60;99.90;;;;;;5034591;28;20049;-73
2022/10/09 10:19:26;;;;;;;0.85;0.55;;;14.70;99.90;;;;;;5038497;28;20044;-74
2022/10/09 10:21:56;;;;;;;1.05;0.60;;;14.90;99.90;;;;;;5024674;28;20380;-73
2022/10/09 10:24:41;;;;;;;0.90;0.70;;;15.10;99.90;;;;;;5042128;28;20183;-72
2022/10/09 10:27:25;;;;;;;0.63;0.50;;;15.30;99.90;;;;;;5026884;28;20135;-73
2022/10/09 10:29:55;;;;;;;0.80;0.50;;;15.40;99.90;;;;;;5041059;28;20144;-73
2022/10/09 10:32:36;;;;;;;1.90;0.80;;;15.60;99.90;;;;;;5037845;28;20158;-73
2022/10/09 10:35:13;;;;;;;0.60;0.50;;;15.80;99.90;;;;;;5045659;28;20054;-73
2022/10/09 10:38:24;;;;;;;0.80;0.65;;;15.90;99.90;;;;;;5049416;28;20051;-73
2022/10/09 10:41:12;;;;;;;0.98;0.60;;;16.00;99.90;;;;;;4975416;28;20102;-73
2022/10/09 10:43:44;;;;;;;1.73;0.88;;;16.10;99.90;;;;;;5038636;28;20047;-73
2022/10/09 10:46:35;;;;;;;1.45;0.80;;;16.10;99.90;;;;;;5037644;28;20690;-73
2022/10/09 10:49:02;;;;;;;1.33;0.70;;;16.20;99.90;;;;;;5032372;28;20045;-73
2022/10/09 10:51:35;;;;;;;1.20;0.75;;;16.30;99.90;;;;;;5023116;28;20048;-72
2022/10/09 10:54:23;;;;;;;1.50;0.73;;;16.40;99.90;;;;;;5041830;28;20077;-72
2022/10/09 10:57:06;;;;;;;0.73;0.60;;;16.40;99.90;;;;;;5054519;28;20049;-73
2022/10/09 11:00:04;;;;;;;1.20;0.60;;;16.40;99.90;;;;;;5037727;28;20053;-73
2022/10/09 11:02:43;;;;;;;1.30;0.60;;;16.50;99.90;;;;;;5050712;28;20045;-72
2022/10/09 11:05:24;;;;;;;1.30;0.68;;;16.60;99.90;;;;;;5039710;28;20140;-72
2022/10/09 11:08:09;;;;;;;0.95;0.70;;;16.70;99.90;;;;;;5038363;28;20457;-72
2022/10/09 11:10:47;;;;;;;0.98;0.60;;;16.90;99.90;;;;;;5036985;28;20056;-73
2022/10/09 11:13:17;;;;;;;0.80;0.60;;;17.00;99.90;;;;;;5038369;28;20049;-74
2022/10/09 11:15:53;;;;;;;1.10;0.60;;;17.20;99.90;;;;;;5035567;28;20151;-77
2022/10/09 11:18:29;;;;;;;0.60;0.57;;;17.40;99.90;;;;;;5040899;28;20461;-77
2022/10/09 11:21:12;;;;;;;1.95;0.52;;;17.80;99.90;;;;;;5007965;28;20069;-75
2022/10/09 11:23:50;;;;;;;1.35;0.50;;;18.20;99.90;;;;;;5053962;28;20044;-75
2022/10/09 11:26:31;;;;;;;1.05;0.70;;;18.40;99.90;;;;;;5022116;28;20052;-75
2022/10/09 11:29:22;;;;;;;1.05;0.70;;;18.60;99.90;;;;;;5023914;28;20053;-74
2022/10/09 11:31:55;;;;;;;0.70;0.60;;;18.80;99.90;;;;;;5022833;28;20060;-75
2022/10/09 11:34:29;;;;;;;1.38;0.70;;;19.00;99.90;;;;;;5023153;28;20041;-74
2022/10/09 11:36:56;;;;;;;1.42;0.70;;;19.10;99.90;;;;;;5019801;28;20370;-75
2022/10/09 11:39:24;;;;;;;0.90;0.75;;;19.20;99.90;;;;;;5045281;28;20087;-75
2022/10/09 11:41:52;;;;;;;0.93;0.60;;;19.30;99.90;;;;;;5027758;28;20064;-75
2022/10/09 11:44:56;;;;;;;0.57;0.52;;;19.50;99.90;;;;;;5024942;28;20413;-75
2022/10/09 11:47:32;;;;;;;0.82;0.60;;;19.50;99.90;;;;;;5042414;28;20068;-75
2022/10/09 11:50:15;;;;;;;1.02;0.50;;;19.70;99.90;;;;;;5024049;28;20921;-75
2022/10/09 11:53:11;;;;;;;1.67;0.80;;;20.00;99.90;;;;;;5039928;28;20056;-75
2022/10/09 11:55:37;;;;;;;1.13;0.50;;;20.00;99.90;;;;;;5020825;28;20066;-75
2022/10/09 11:58:23;;;;;;;0.82;0.60;;;19.70;99.90;;;;;;5036909;28;20047;-75
2022/10/09 12:00:54;;;;;;;0.52;0.40;;;19.70;99.90;;;;;;5022948;28;20818;-75
2022/10/09 12:03:35;;;;;;;1.67;0.70;;;19.90;99.90;;;;;;5005842;28;20053;-74
2022/10/09 12:06:15;;;;;;;1.45;0.68;;;20.00;99.90;;;;;;5006282;28;20044;-76
2022/10/09 12:09:05;;;;;;;1.08;0.60;;;20.10;99.90;;;;;;5053608;28;20436;-75
2022/10/09 12:11:32;;;;;;;0.80;0.68;;;20.40;99.70;;;;;;5038570;28;20049;-75
2022/10/09 12:14:05;;;;;;;0.82;0.68;;;20.70;98.50;;;;;;5020727;28;20114;-75
2022/10/09 12:16:40;;;;;;;1.05;0.70;;;20.90;98.00;;;;;;5017642;28;20271;-75
2022/10/09 12:19:22;;;;;;;0.75;0.50;;;21.00;96.00;;;;;;5038752;28;20049;-75
2022/10/09 12:22:18;;;;;;;1.52;0.80;;;21.30;97.60;;;;;;5006610;28;20053;-75
2022/10/09 12:24:49;;;;;;;0.73;0.47;;;21.60;95.90;;;;;;5050003;28;20111;-75
2022/10/09 12:27:18;;;;;;;0.75;0.60;;;22.00;95.80;;;;;;5039479;28;20127;-74
2022/10/09 12:29:47;;;;;;;0.60;0.50;;;22.40;95.60;;;;;;5036124;28;20130;-75
2022/10/09 12:32:38;;;;;;;1.00;0.70;;;22.70;95.90;;;;;;5052915;28;20044;-75
2022/10/09 12:35:22;;;;;;;1.58;0.60;;;23.00;95.50;;;;;;5036889;28;20080;-75
2022/10/09 12:37:49;;;;;;;0.68;0.60;;;22.90;93.40;;;;;;5037558;28;20285;-75
2022/10/09 12:40:17;;;;;;;0.90;0.70;;;22.70;93.30;;;;;;5039340;28;20174;-75
2022/10/09 12:42:44;;;;;;;1.35;0.57;;;22.80;93.60;;;;;;5035803;28;20571;-75
2022/10/09 12:45:26;;;;;;;0.68;0.50;;;22.90;92.20;;;;;;5037274;28;20727;-75
2022/10/09 12:47:53;;;;;;;0.55;0.32;;;23.20;92.30;;;;;;5038000;28;20057;-75
2022/10/09 12:50:29;;;;;;;1.25;0.50;;;23.50;91.70;;;;;;5020743;28;20060;-75
2022/10/09 12:52:58;;;;;;;0.45;0.45;;;23.80;91.20;;;;;;5003144;28;20168;-76
2022/10/09 12:55:26;;;;;;;0.50;0.50;;;24.00;91.90;;;;;;5036512;28;20049;-76
2022/10/09 12:58:17;;;;;;;0.93;0.55;;;24.10;90.00;;;;;;5034544;28;20056;-76
2022/10/09 13:00:46;;;;;;;0.65;0.50;;;24.20;87.60;;;;;;5032328;28;20089;-76
2022/10/09 13:03:36;;;;;;;0.73;0.50;;;24.20;87.10;;;;;;5035456;28;20052;-75
2022/10/09 13:06:05;;;;;;;0.50;0.40;;;24.10;86.40;;;;;;5037029;28;20073;-75
2022/10/09 13:08:34;;;;;;;0.88;0.50;;;24.10;85.80;;;;;;5036194;28;20068;-77
2022/10/09 13:11:10;;;;;;;0.63;0.63;;;24.10;85.00;;;;;;5035990;28;20044;-76
2022/10/09 13:13:37;;;;;;;0.68;0.50;;;24.20;87.00;;;;;;5020373;28;20049;-76
2022/10/09 13:16:08;;;;;;;0.60;0.50;;;24.40;85.80;;;;;;5034492;28;20764;-76
2022/10/09 13:18:36;;;;;;;0.98;0.68;;;24.30;84.10;;;;;;5017792;28;20060;-76